Time;durP1;ratioP1;P1;durP2;ratioP2;P2;SDS_P1;SDS_P2;PMS_P1;PMS_P2;Temp;Humidity;BMP_temperature;BMP_pressure;BME280_temperature;BME280_humidity;BME280_pressure;Samples;Min_cycle;Max_cycle;Signal;HPM_P1;HPM_P2
2021/12/22 00:00:31;;;;;;;16.33;7.80;;;1.60;99.90;;;;;;5011335;28;20032;-53
2021/12/22 00:02:58;;;;;;;15.52;6.38;;;1.60;99.90;;;;;;5012275;28;20030;-55
2021/12/22 00:05:27;;;;;;;12.05;6.32;;;1.60;99.90;;;;;;5011910;28;20465;-54
2021/12/22 00:07:53;;;;;;;16.90;7.00;;;1.60;99.90;;;;;;5012106;28;20061;-50
2021/12/22 00:10:20;;;;;;;17.33;6.45;;;1.60;99.90;;;;;;4994561;28;20427;-52
2021/12/22 00:12:47;;;;;;;10.70;5.68;;;1.50;99.90;;;;;;5012264;28;20044;-52
2021/12/22 00:15:13;;;;;;;17.25;7.00;;;1.50;99.90;;;;;;4993436;28;20077;-55
2021/12/22 00:17:39;;;;;;;15.10;6.55;;;1.50;99.90;;;;;;5011287;28;20053;-55
2021/12/22 00:20:06;;;;;;;16.48;6.65;;;1.60;99.90;;;;;;5007456;28;20053;-54
2021/12/22 00:22:32;;;;;;;13.70;6.05;;;1.60;99.90;;;;;;5011734;28;20049;-53
2021/12/22 00:24:58;;;;;;;11.40;5.88;;;1.60;99.90;;;;;;5011996;28;20033;-54
2021/12/22 00:27:23;;;;;;;13.82;6.75;;;1.60;99.90;;;;;;5011056;28;20033;-56
2021/12/22 00:29:51;;;;;;;15.57;6.28;;;1.60;99.90;;;;;;5005476;28;20177;-53
2021/12/22 00:32:17;;;;;;;11.82;5.90;;;1.60;99.90;;;;;;5011678;28;20071;-53
2021/12/22 00:34:49;;;;;;;17.25;6.40;;;1.60;99.90;;;;;;5011546;28;20030;-52
2021/12/22 00:37:17;;;;;;;12.70;5.85;;;1.60;99.90;;;;;;5011494;28;20067;-52
2021/12/22 00:39:44;;;;;;;14.77;6.65;;;1.60;99.90;;;;;;5011610;28;20034;-50
2021/12/22 00:42:10;;;;;;;14.30;5.55;;;1.60;99.90;;;;;;5011463;28;20034;-52
2021/12/22 00:44:36;;;;;;;12.60;5.43;;;1.60;99.90;;;;;;5010387;28;20037;-53
2021/12/22 00:47:02;;;;;;;14.35;6.47;;;1.60;99.90;;;;;;5011568;28;20470;-51
2021/12/22 00:49:27;;;;;;;14.45;6.25;;;1.60;99.90;;;;;;5011331;28;20400;-55
2021/12/22 00:51:53;;;;;;;14.02;5.82;;;1.60;99.90;;;;;;5011237;28;20058;-54
2021/12/22 00:54:18;;;;;;;11.23;5.40;;;1.60;99.90;;;;;;5011388;28;20532;-54
2021/12/22 00:56:44;;;;;;;10.90;5.28;;;1.60;99.90;;;;;;5011385;28;20022;-53
2021/12/22 00:59:10;;;;;;;16.45;7.10;;;1.60;99.90;;;;;;5010554;28;20038;-54
2021/12/22 01:01:36;;;;;;;15.45;6.97;;;1.60;99.90;;;;;;5010968;28;20026;-54
2021/12/22 01:04:02;;;;;;;15.95;6.18;;;1.60;99.90;;;;;;5011325;28;20030;-56
2021/12/22 01:06:27;;;;;;;12.38;6.03;;;1.60;99.90;;;;;;5011042;28;20033;-52
2021/12/22 01:08:53;;;;;;;13.55;6.53;;;1.70;99.90;;;;;;5011063;28;20404;-56
2021/12/22 01:11:18;;;;;;;16.40;7.10;;;1.70;99.90;;;;;;5011057;28;20026;-55
2021/12/22 01:13:44;;;;;;;12.68;6.22;;;1.70;99.90;;;;;;5010790;28;20121;-56
2021/12/22 01:16:10;;;;;;;14.55;6.78;;;1.70;99.90;;;;;;5010402;28;20030;-49
2021/12/22 01:18:36;;;;;;;14.23;6.25;;;1.70;99.90;;;;;;5006025;28;20022;-54
2021/12/22 01:21:17;;;;;;;12.35;5.85;;;1.70;99.90;;;;;;5010973;28;20022;-54
2021/12/22 01:26:33;;;;;;;13.57;5.60;;;1.70;99.90;;;;;;5010841;28;20036;-54
2021/12/22 01:28:59;;;;;;;15.07;6.28;;;1.70;99.90;;;;;;5010237;28;20500;-53
2021/12/22 01:31:25;;;;;;;14.05;6.00;;;1.70;99.90;;;;;;5010796;28;20061;-53
2021/12/22 01:33:51;;;;;;;14.43;6.70;;;1.70;99.90;;;;;;5010926;28;20030;-54
2021/12/22 01:36:16;;;;;;;12.82;5.60;;;1.70;99.90;;;;;;5010698;28;20509;-51
2021/12/22 01:38:42;;;;;;;15.45;6.68;;;1.70;99.90;;;;;;5011036;28;20401;-54
2021/12/22 01:41:07;;;;;;;19.92;7.30;;;1.70;99.90;;;;;;5010757;28;20568;-51
2021/12/22 01:43:33;;;;;;;15.82;6.95;;;1.80;99.90;;;;;;5010691;28;20041;-56
2021/12/22 01:49:10;;;;;;;12.57;6.38;;;1.80;99.90;;;;;;5010714;28;20445;-53
2021/12/22 01:52:11;;;;;;;12.65;6.57;;;1.80;99.90;;;;;;5010358;28;20045;-54
2021/12/22 01:54:48;;;;;;;15.10;7.38;;;1.70;99.90;;;;;;4950352;28;20114;-55
2021/12/22 01:57:15;;;;;;;14.30;6.60;;;1.70;99.90;;;;;;5006315;28;20054;-52
2021/12/22 01:59:42;;;;;;;18.75;8.00;;;1.70;99.90;;;;;;5013739;28;20026;-54
2021/12/22 02:02:10;;;;;;;19.15;6.65;;;1.70;99.90;;;;;;5014368;28;20503;-55
2021/12/22 02:04:38;;;;;;;13.88;6.68;;;1.70;99.90;;;;;;5014336;28;20034;-54
2021/12/22 02:07:04;;;;;;;15.52;6.72;;;1.80;99.90;;;;;;5014269;28;20022;-52
2021/12/22 02:11:55;;;;;;;15.43;7.13;;;1.70;99.90;;;;;;5013879;28;20026;-56
2021/12/22 02:14:21;;;;;;;15.60;7.85;;;1.80;99.90;;;;;;4997294;28;20428;-54
2021/12/22 02:16:46;;;;;;;13.02;6.97;;;1.70;99.90;;;;;;5015779;28;20029;-53
2021/12/22 02:19:13;;;;;;;15.27;6.70;;;1.70;99.90;;;;;;5016151;28;20033;-53
2021/12/22 02:21:45;;;;;;;14.52;7.13;;;1.70;99.90;;;;;;5015768;28;20105;-53
2021/12/22 02:24:11;;;;;;;16.08;6.80;;;1.70;99.90;;;;;;5016035;28;20022;-54
2021/12/22 02:26:47;;;;;;;15.65;7.07;;;1.80;99.90;;;;;;5015840;28;20088;-53
2021/12/22 02:29:22;;;;;;;17.00;6.60;;;1.70;99.90;;;;;;5014844;28;20030;-54
2021/12/22 02:32:05;;;;;;;14.05;6.32;;;1.70;99.90;;;;;;5015706;28;20041;-55
2021/12/22 02:34:40;;;;;;;11.73;6.07;;;1.70;99.90;;;;;;5015685;28;20072;-53
2021/12/22 02:37:11;;;;;;;12.80;6.47;;;1.70;99.90;;;;;;5015643;28;20021;-54
2021/12/22 02:39:37;;;;;;;10.95;6.00;;;1.60;99.90;;;;;;5015506;28;20433;-51
2021/12/22 02:42:03;;;;;;;14.35;6.22;;;1.60;99.90;;;;;;5015498;28;20030;-50
2021/12/22 02:44:28;;;;;;;12.25;5.70;;;1.60;99.90;;;;;;5014580;28;20026;-52
2021/12/22 02:46:54;;;;;;;10.70;5.57;;;1.60;99.90;;;;;;5015462;28;20062;-54
2021/12/22 02:49:19;;;;;;;12.57;5.85;;;1.60;99.90;;;;;;4997990;28;20034;-52
2021/12/22 02:51:45;;;;;;;10.50;5.43;;;1.60;99.90;;;;;;5015281;28;20038;-54
2021/12/22 02:54:23;;;;;;;11.95;6.45;;;1.60;99.90;;;;;;5015068;28;20026;-54
2021/12/22 02:56:56;;;;;;;13.10;5.28;;;1.50;99.90;;;;;;5015294;28;20014;-53
2021/12/22 02:59:42;;;;;;;10.75;4.80;;;1.50;99.90;;;;;;5033070;28;20053;-54
2021/12/22 03:04:53;;;;;;;11.50;5.32;;;1.50;99.90;;;;;;4995414;28;20053;-52
2021/12/22 03:07:22;;;;;;;10.80;5.65;;;1.50;99.90;;;;;;4995208;28;20034;-54
2021/12/22 03:09:57;;;;;;;11.55;5.47;;;1.50;99.90;;;;;;4995255;28;20228;-51
2021/12/22 03:12:24;;;;;;;10.32;5.68;;;1.50;99.90;;;;;;4995402;28;20073;-54
2021/12/22 03:14:49;;;;;;;9.85;5.50;;;1.40;99.90;;;;;;4994413;28;20125;-55
2021/12/22 03:17:15;;;;;;;9.95;5.13;;;1.40;99.90;;;;;;4995205;28;20533;-56
2021/12/22 03:19:40;;;;;;;12.82;5.82;;;1.40;99.90;;;;;;4995076;28;20121;-54
2021/12/22 03:22:10;;;;;;;9.82;5.03;;;1.40;99.90;;;;;;4977787;28;20037;-52
2021/12/22 03:24:37;;;;;;;11.65;5.82;;;1.40;99.90;;;;;;4994862;28;20034;-54
2021/12/22 03:27:04;;;;;;;10.98;5.38;;;1.40;99.90;;;;;;4995176;28;20031;-54
2021/12/22 03:29:32;;;;;;;10.90;5.00;;;1.40;99.90;;;;;;4993986;28;20023;-56
2021/12/22 03:31:57;;;;;;;12.90;5.45;;;1.40;99.90;;;;;;4997112;28;20041;-53
2021/12/22 03:34:23;;;;;;;11.55;5.93;;;1.40;99.90;;;;;;5014364;28;20030;-55
2021/12/22 03:36:50;;;;;;;11.57;5.70;;;1.40;99.90;;;;;;5014381;28;20030;-48
2021/12/22 03:39:16;;;;;;;11.75;5.32;;;1.40;99.90;;;;;;5014163;28;20026;-54
2021/12/22 03:41:43;;;;;;;12.23;5.50;;;1.40;99.90;;;;;;5014366;28;20417;-53
2021/12/22 03:44:10;;;;;;;8.38;4.63;;;1.40;99.90;;;;;;5013300;28;20025;-56
2021/12/22 03:46:36;;;;;;;11.25;5.65;;;1.40;99.90;;;;;;5014182;28;20069;-54
2021/12/22 03:49:04;;;;;;;14.57;5.75;;;1.40;99.90;;;;;;5014126;28;20037;-56
2021/12/22 03:51:30;;;;;;;13.10;6.07;;;1.30;99.90;;;;;;5014198;28;20042;-55
2021/12/22 03:53:56;;;;;;;13.05;6.20;;;1.40;99.90;;;;;;5014009;28;20028;-49
2021/12/22 03:56:21;;;;;;;12.32;6.20;;;1.40;99.90;;;;;;5014308;28;20425;-56
2021/12/22 03:58:47;;;;;;;9.82;5.55;;;1.40;99.90;;;;;;5026820;28;20029;-56
2021/12/22 04:01:13;;;;;;;12.32;5.05;;;1.40;99.90;;;;;;5033799;28;20025;-51
2021/12/22 04:03:41;;;;;;;10.63;5.70;;;1.50;99.90;;;;;;5021743;28;20116;-54
2021/12/22 04:06:07;;;;;;;12.48;5.65;;;1.50;99.90;;;;;;5014093;28;20022;-53
2021/12/22 04:08:33;;;;;;;13.52;4.97;;;1.50;99.90;;;;;;5013766;28;20112;-53
2021/12/22 04:10:58;;;;;;;11.07;5.47;;;1.40;99.90;;;;;;5013810;28;20462;-54
2021/12/22 04:13:24;;;;;;;15.80;7.03;;;1.40;99.90;;;;;;5013700;28;20065;-49
2021/12/22 04:15:49;;;;;;;16.48;7.47;;;1.40;99.90;;;;;;5012776;28;20036;-54
2021/12/22 04:18:17;;;;;;;14.45;5.82;;;1.40;99.90;;;;;;5012990;28;20057;-52
2021/12/22 04:20:43;;;;;;;14.52;6.28;;;1.40;99.90;;;;;;5013626;28;20026;-54
2021/12/22 04:23:08;;;;;;;11.43;5.70;;;1.40;99.90;;;;;;5013560;28;20033;-54
2021/12/22 04:25:35;;;;;;;12.90;6.63;;;1.40;99.90;;;;;;5013615;28;20033;-56
2021/12/22 04:28:05;;;;;;;12.20;6.30;;;1.40;99.90;;;;;;5013316;28;20396;-53
2021/12/22 04:30:34;;;;;;;11.60;5.93;;;1.40;99.90;;;;;;5012648;28;20459;-53
2021/12/22 04:33:00;;;;;;;14.55;6.50;;;1.50;99.90;;;;;;5013435;28;20022;-54
2021/12/22 04:35:26;;;;;;;10.07;5.65;;;1.50;99.90;;;;;;5013553;28;20469;-49
2021/12/22 04:37:51;;;;;;;11.85;5.97;;;1.50;99.90;;;;;;5013191;28;20060;-51
2021/12/22 04:40:17;;;;;;;14.38;6.68;;;1.50;99.90;;;;;;5013410;28;20018;-54
2021/12/22 04:42:44;;;;;;;10.63;5.45;;;1.50;99.90;;;;;;5013199;28;20149;-52
2021/12/22 04:45:10;;;;;;;11.40;5.97;;;1.50;99.90;;;;;;5012178;28;20400;-51
2021/12/22 04:47:37;;;;;;;11.70;5.75;;;1.50;99.90;;;;;;5013168;28;20374;-52
2021/12/22 04:50:11;;;;;;;12.80;5.93;;;1.50;99.90;;;;;;5013086;28;20066;-52
2021/12/22 04:52:44;;;;;;;12.15;5.97;;;1.50;99.90;;;;;;5013155;28;20029;-52
2021/12/22 04:55:10;;;;;;;19.33;6.32;;;1.50;99.90;;;;;;5012909;28;20060;-50
2021/12/22 04:57:35;;;;;;;14.50;6.50;;;1.40;99.90;;;;;;5017121;28;20412;-55
2021/12/22 05:00:05;;;;;;;12.40;5.75;;;1.50;99.90;;;;;;5031839;28;20033;-54
2021/12/22 05:02:30;;;;;;;13.02;6.13;;;1.50;99.90;;;;;;5030326;28;20036;-52
2021/12/22 05:04:56;;;;;;;9.70;5.10;;;1.50;99.90;;;;;;5012859;28;20109;-51
2021/12/22 05:07:21;;;;;;;15.30;6.85;;;1.50;99.90;;;;;;5013052;28;20032;-55
2021/12/22 05:09:47;;;;;;;12.68;6.15;;;1.50;99.90;;;;;;5012430;28;20033;-52
2021/12/22 05:12:12;;;;;;;10.85;6.53;;;1.50;99.90;;;;;;5012873;28;20029;-52
2021/12/22 05:14:39;;;;;;;10.48;5.38;;;1.50;99.90;;;;;;5011883;28;20076;-50
2021/12/22 05:17:06;;;;;;;14.15;6.75;;;1.50;99.90;;;;;;5012914;28;20428;-53
2021/12/22 05:19:32;;;;;;;13.45;6.00;;;1.50;99.90;;;;;;5012813;28;20037;-54
2021/12/22 05:21:57;;;;;;;12.60;6.40;;;1.50;99.90;;;;;;5012752;28;20134;-55
2021/12/22 05:24:23;;;;;;;11.38;5.47;;;1.50;99.90;;;;;;5009268;28;20030;-51
2021/12/22 05:26:49;;;;;;;10.23;5.38;;;1.50;99.90;;;;;;5012334;28;20112;-54
2021/12/22 05:29:16;;;;;;;10.38;5.53;;;1.50;99.90;;;;;;5011354;28;20030;-50
2021/12/22 05:31:42;;;;;;;11.07;5.20;;;1.50;99.90;;;;;;5003354;28;20053;-55
2021/12/22 05:34:07;;;;;;;9.18;4.93;;;1.50;99.90;;;;;;5004430;28;20030;-51
2021/12/22 05:36:33;;;;;;;6.13;4.20;;;1.50;99.90;;;;;;5010321;28;20030;-51
2021/12/22 05:38:58;;;;;;;12.57;4.15;;;1.50;99.90;;;;;;5006686;28;20030;-54
2021/12/22 05:41:24;;;;;;;5.93;3.60;;;1.40;99.90;;;;;;5007314;28;20033;-50
2021/12/22 05:43:50;;;;;;;7.88;3.00;;;1.40;99.90;;;;;;5009775;28;20034;-51
2021/12/22 05:46:16;;;;;;;8.20;3.50;;;1.40;99.90;;;;;;5009996;28;20077;-54
2021/12/22 05:48:44;;;;;;;5.80;3.05;;;1.40;99.90;;;;;;5010269;28;20068;-52
2021/12/22 05:51:10;;;;;;;10.63;3.80;;;1.40;99.90;;;;;;5009864;28;20050;-55
2021/12/22 05:53:36;;;;;;;7.05;3.00;;;1.30;99.90;;;;;;5010389;28;20478;-54
2021/12/22 05:56:01;;;;;;;6.00;2.83;;;1.30;99.90;;;;;;5010470;28;20057;-53
2021/12/22 05:58:27;;;;;;;7.15;3.30;;;1.30;99.90;;;;;;5010380;28;20033;-52
2021/12/22 06:00:53;;;;;;;5.90;2.70;;;1.30;99.90;;;;;;5009532;28;20022;-55
2021/12/22 06:03:18;;;;;;;6.65;3.05;;;1.30;99.90;;;;;;5010770;28;20030;-54
2021/12/22 06:05:44;;;;;;;5.57;2.60;;;1.30;99.90;;;;;;5000053;28;20327;-54
2021/12/22 06:08:09;;;;;;;5.57;2.65;;;1.30;99.90;;;;;;5010685;28;20419;-54
2021/12/22 06:10:35;;;;;;;5.22;2.70;;;1.30;99.90;;;;;;5010176;28;20026;-53
2021/12/22 06:13:05;;;;;;;5.80;2.83;;;1.30;99.90;;;;;;4992792;28;20113;-55
2021/12/22 06:15:32;;;;;;;7.95;3.10;;;1.30;99.90;;;;;;4991861;28;20029;-51
2021/12/22 06:17:59;;;;;;;10.43;3.22;;;1.40;99.90;;;;;;5010565;28;20060;-51
2021/12/22 06:20:25;;;;;;;5.80;2.95;;;1.40;99.90;;;;;;5010487;28;20101;-51
2021/12/22 06:22:51;;;;;;;5.78;3.00;;;1.40;99.90;;;;;;5010271;28;20036;-55
2021/12/22 06:25:17;;;;;;;6.43;3.15;;;1.30;99.90;;;;;;5010358;28;20030;-52
2021/12/22 06:27:42;;;;;;;4.63;2.72;;;1.30;99.90;;;;;;5007219;28;20044;-56
2021/12/22 06:30:08;;;;;;;7.85;3.67;;;1.30;99.90;;;;;;5009193;28;20041;-53
2021/12/22 06:32:34;;;;;;;9.98;3.50;;;1.20;99.90;;;;;;5010261;28;20025;-55
2021/12/22 06:34:59;;;;;;;6.78;3.55;;;1.20;99.90;;;;;;5010054;28;20465;-53
2021/12/22 06:37:26;;;;;;;5.90;3.70;;;1.20;99.90;;;;;;5010157;28;20069;-53
2021/12/22 06:39:52;;;;;;;8.57;3.78;;;1.20;99.90;;;;;;4997328;28;20038;-55
2021/12/22 06:42:17;;;;;;;9.15;3.55;;;1.20;99.90;;;;;;5010391;28;20071;-55
2021/12/22 06:44:43;;;;;;;11.00;3.92;;;1.20;99.90;;;;;;5007308;28;20044;-52
2021/12/22 06:47:10;;;;;;;9.98;4.80;;;1.20;99.90;;;;;;5013932;28;20069;-48
2021/12/22 06:49:37;;;;;;;12.63;5.75;;;1.10;99.90;;;;;;5013430;28;20535;-49
2021/12/22 06:52:03;;;;;;;7.22;4.80;;;1.00;99.90;;;;;;5015830;28;20042;-51
2021/12/22 06:54:28;;;;;;;9.55;5.07;;;1.00;99.90;;;;;;5013565;28;20074;-50
2021/12/22 06:56:54;;;;;;;12.27;5.82;;;0.90;99.90;;;;;;5013316;28;20481;-53
2021/12/22 06:59:19;;;;;;;13.25;4.90;;;0.80;99.90;;;;;;5012563;28;20030;-52
2021/12/22 07:01:46;;;;;;;9.90;5.75;;;0.70;99.90;;;;;;5013210;28;20026;-51
2021/12/22 07:04:11;;;;;;;11.05;5.45;;;0.60;99.90;;;;;;5016100;28;20478;-56
2021/12/22 07:06:37;;;;;;;14.02;5.60;;;0.50;99.90;;;;;;5013274;28;20032;-52
2021/12/22 07:09:05;;;;;;;9.63;5.00;;;0.40;99.90;;;;;;5013254;28;20489;-53
2021/12/22 07:11:32;;;;;;;14.52;5.28;;;0.30;99.90;;;;;;5011457;28;20017;-53
2021/12/22 07:13:58;;;;;;;11.65;5.70;;;0.30;99.90;;;;;;5009214;28;20028;-51
2021/12/22 07:16:23;;;;;;;14.85;5.13;;;0.20;99.90;;;;;;5024759;28;20033;-52
2021/12/22 07:18:49;;;;;;;17.50;6.45;;;0.10;99.90;;;;;;5000756;28;20058;-50
2021/12/22 07:21:14;;;;;;;13.77;6.22;;;0.10;99.90;;;;;;5007844;28;20061;-55
2021/12/22 07:23:40;;;;;;;12.75;5.88;;;0.00;99.90;;;;;;4995540;28;20029;-51
2021/12/22 07:26:05;;;;;;;13.52;5.88;;;-0.10;99.90;;;;;;5013086;28;20036;-49
2021/12/22 07:28:31;;;;;;;13.15;5.35;;;-0.10;99.90;;;;;;4990566;28;20033;-53
2021/12/22 07:30:56;;;;;;;11.32;5.72;;;-0.20;99.90;;;;;;5011763;28;20030;-50
2021/12/22 07:33:22;;;;;;;15.05;6.35;;;-0.20;99.90;;;;;;5022481;28;20102;-51
2021/12/22 07:36:02;;;;;;;15.68;6.07;;;-0.20;99.90;;;;;;5012632;28;20435;-54
2021/12/22 07:38:40;;;;;;;15.23;5.75;;;-0.30;99.90;;;;;;5011019;28;20478;-52
2021/12/22 07:41:08;;;;;;;13.82;5.95;;;-0.30;99.90;;;;;;4999621;28;20121;-51
2021/12/22 07:43:35;;;;;;;19.58;6.47;;;-0.30;99.90;;;;;;5012534;28;20044;-52
2021/12/22 07:46:03;;;;;;;13.20;6.38;;;-0.30;99.90;;;;;;5011823;28;20050;-52
2021/12/22 07:48:29;;;;;;;11.52;5.55;;;-0.40;99.90;;;;;;5012426;28;20076;-51
2021/12/22 07:50:55;;;;;;;14.82;5.85;;;-0.40;99.90;;;;;;5012211;28;20429;-50
2021/12/22 07:53:21;;;;;;;7.38;4.63;;;-0.40;99.90;;;;;;5011394;28;20441;-53
2021/12/22 07:55:48;;;;;;;9.77;4.65;;;-0.40;99.90;;;;;;5012599;28;20037;-49
2021/12/22 07:58:13;;;;;;;15.02;6.15;;;-0.40;99.90;;;;;;5012292;28;20061;-53
2021/12/22 08:00:39;;;;;;;10.23;4.90;;;-0.40;99.90;;;;;;5011834;28;20054;-51
2021/12/22 08:03:05;;;;;;;9.95;5.15;;;-0.40;99.90;;;;;;5012236;28;20393;-53
2021/12/22 08:05:30;;;;;;;10.40;4.78;;;-0.50;99.90;;;;;;5012338;28;20029;-48
2021/12/22 08:07:56;;;;;;;14.80;5.97;;;-0.50;99.90;;;;;;5015206;28;20033;-51
2021/12/22 08:10:22;;;;;;;14.05;6.70;;;-0.40;99.90;;;;;;5012266;28;20037;-53
2021/12/22 08:12:48;;;;;;;14.20;6.00;;;-0.40;99.90;;;;;;5012313;28;20018;-52
2021/12/22 08:15:15;;;;;;;14.38;6.43;;;-0.40;99.90;;;;;;5010794;28;20026;-52
2021/12/22 08:17:41;;;;;;;13.35;6.55;;;-0.30;99.90;;;;;;5011980;28;20185;-53
2021/12/22 08:20:07;;;;;;;17.23;6.50;;;-0.30;99.90;;;;;;5012004;28;20026;-52
2021/12/22 08:22:32;;;;;;;21.00;7.28;;;-0.20;99.90;;;;;;4994206;28;20026;-52
2021/12/22 08:24:58;;;;;;;17.75;6.68;;;-0.20;99.90;;;;;;5011953;28;20030;-55
2021/12/22 08:27:23;;;;;;;11.82;5.65;;;-0.10;99.90;;;;;;5010495;28;20447;-53
2021/12/22 08:29:49;;;;;;;11.57;5.88;;;0.00;99.90;;;;;;4998525;28;20044;-53
2021/12/22 08:32:15;;;;;;;15.80;6.25;;;0.00;99.90;;;;;;4998354;28;20420;-56
2021/12/22 08:34:42;;;;;;;15.70;7.47;;;0.10;99.90;;;;;;4994249;28;20026;-52
2021/12/22 08:39:53;;;;;;;32.20;15.52;;;0.30;99.90;;;;;;5000317;28;20033;-54
2021/12/22 08:42:20;;;;;;;25.40;10.27;;;0.50;99.90;;;;;;5011533;28;20030;-52
2021/12/22 08:44:48;;;;;;;15.77;7.63;;;0.70;99.90;;;;;;5010539;28;20125;-52
2021/12/22 08:47:14;;;;;;;16.48;8.23;;;0.80;99.90;;;;;;5011184;28;20108;-55
2021/12/22 08:49:40;;;;;;;17.25;8.10;;;1.00;99.90;;;;;;5011292;28;20072;-52
2021/12/22 08:52:06;;;;;;;21.88;8.60;;;1.10;99.90;;;;;;5011361;28;20029;-50
2021/12/22 08:54:32;;;;;;;16.58;8.98;;;1.20;99.90;;;;;;5011330;28;20018;-55
2021/12/22 08:56:57;;;;;;;13.80;7.07;;;1.30;99.90;;;;;;5011534;28;20021;-54
2021/12/22 08:59:24;;;;;;;21.20;10.00;;;1.40;99.90;;;;;;5010043;28;20042;-55
2021/12/22 09:01:50;;;;;;;17.83;8.55;;;1.50;99.90;;;;;;5011159;28;20073;-51
2021/12/22 09:04:16;;;;;;;19.02;9.40;;;1.60;99.90;;;;;;5010615;28;20473;-54
2021/12/22 09:06:42;;;;;;;19.30;9.00;;;1.60;99.90;;;;;;5008407;28;20504;-52
2021/12/22 09:09:09;;;;;;;12.05;6.65;;;1.70;99.90;;;;;;4992725;28;20512;-52
2021/12/22 09:11:35;;;;;;;19.85;8.07;;;1.70;99.90;;;;;;4993273;28;20026;-51
2021/12/22 09:14:03;;;;;;;19.10;9.10;;;1.80;99.90;;;;;;5010134;28;20026;-52
2021/12/22 09:16:29;;;;;;;19.95;8.60;;;1.80;99.90;;;;;;5010914;28;20037;-55
2021/12/22 09:18:56;;;;;;;20.92;9.23;;;1.90;99.90;;;;;;5010891;28;20030;-54
2021/12/22 09:21:22;;;;;;;22.45;10.32;;;1.90;99.90;;;;;;5010892;28;20042;-54
2021/12/22 09:23:48;;;;;;;14.85;9.05;;;1.90;99.90;;;;;;5011103;28;20385;-53
2021/12/22 09:26:14;;;;;;;18.80;9.45;;;1.90;99.90;;;;;;5010893;28;20117;-51
2021/12/22 09:28:39;;;;;;;17.58;9.25;;;2.00;99.90;;;;;;5009937;28;20037;-51
2021/12/22 09:31:06;;;;;;;17.65;9.45;;;2.00;99.90;;;;;;5010867;28;20022;-51
2021/12/22 09:33:32;;;;;;;23.33;9.73;;;2.10;99.90;;;;;;5010853;28;20030;-53
2021/12/22 09:35:58;;;;;;;19.77;9.73;;;2.20;99.90;;;;;;5010948;28;20076;-52
2021/12/22 09:38:24;;;;;;;18.45;9.02;;;2.20;99.90;;;;;;5009440;28;20033;-53
2021/12/22 09:40:50;;;;;;;17.98;9.07;;;2.30;99.90;;;;;;5010995;28;20759;-51
2021/12/22 09:43:16;;;;;;;17.42;8.55;;;2.40;99.90;;;;;;5010828;28;20041;-55
2021/12/22 09:45:46;;;;;;;17.52;8.73;;;2.40;99.90;;;;;;4997109;28;20042;-56
2021/12/22 09:50:52;;;;;;;21.08;9.23;;;2.50;99.90;;;;;;5011039;28;20124;-52
2021/12/22 09:53:25;;;;;;;17.83;8.00;;;2.50;99.90;;;;;;5005924;28;20033;-50
2021/12/22 09:55:53;;;;;;;18.85;8.75;;;2.60;99.90;;;;;;5010393;28;20485;-52
2021/12/22 09:58:19;;;;;;;18.08;8.40;;;2.60;99.90;;;;;;5010729;28;20030;-55
2021/12/22 10:00:46;;;;;;;16.80;8.52;;;2.60;99.90;;;;;;5009463;28;20366;-50
2021/12/22 10:03:12;;;;;;;18.38;8.60;;;2.70;99.90;;;;;;5010257;28;20477;-53
2021/12/22 10:05:39;;;;;;;17.10;8.55;;;2.70;99.90;;;;;;5010698;28;20068;-56
2021/12/22 10:08:11;;;;;;;13.77;8.23;;;2.80;99.90;;;;;;5010527;28;20034;-53
2021/12/22 10:10:44;;;;;;;25.05;12.55;;;2.80;99.90;;;;;;5010856;28;20022;-52
2021/12/22 10:13:16;;;;;;;19.02;9.65;;;2.80;99.90;;;;;;5006995;28;20022;-51
2021/12/22 10:15:42;;;;;;;18.27;8.77;;;2.80;99.90;;;;;;5007886;28;20041;-55
2021/12/22 10:18:16;;;;;;;16.85;8.30;;;2.80;99.90;;;;;;5013865;28;20426;-56
2021/12/22 10:20:43;;;;;;;14.88;8.05;;;2.80;99.90;;;;;;5013181;28;20073;-53
2021/12/22 10:23:30;;;;;;;20.63;8.98;;;2.80;99.90;;;;;;5013931;28;20026;-50
2021/12/22 10:25:57;;;;;;;17.95;10.07;;;2.80;99.90;;;;;;5012600;28;20065;-49
2021/12/22 10:28:24;;;;;;;18.30;9.25;;;2.80;99.90;;;;;;5013145;28;20045;-55
2021/12/22 10:30:56;;;;;;;17.42;8.85;;;2.80;99.90;;;;;;4992735;28;20449;-56
2021/12/22 10:33:26;;;;;;;19.98;8.90;;;2.70;99.90;;;;;;5013262;28;20034;-52
2021/12/22 10:35:55;;;;;;;17.70;9.68;;;2.70;99.90;;;;;;5012228;28;20041;-50
2021/12/22 10:38:27;;;;;;;18.80;9.05;;;2.70;99.90;;;;;;5002184;28;20033;-55
2021/12/22 10:41:00;;;;;;;18.95;9.45;;;2.70;99.90;;;;;;5014276;28;20026;-56
2021/12/22 10:43:32;;;;;;;17.13;11.13;;;2.60;99.90;;;;;;5011437;28;20037;-56
2021/12/22 10:46:04;;;;;;;19.48;9.27;;;2.60;99.90;;;;;;5011913;28;20540;-55
2021/12/22 10:51:25;;;;;;;17.77;9.02;;;2.60;99.90;;;;;;5005323;28;20054;-54
2021/12/22 10:53:53;;;;;;;21.63;9.20;;;2.60;99.90;;;;;;5009233;28;20213;-52
2021/12/22 10:56:38;;;;;;;19.23;9.43;;;2.50;99.90;;;;;;5011871;28;20048;-55
2021/12/22 10:59:08;;;;;;;23.63;11.57;;;2.60;99.90;;;;;;5012870;28;20527;-54
2021/12/22 11:01:36;;;;;;;22.08;9.93;;;2.60;99.90;;;;;;5013254;28;20105;-53
2021/12/22 11:04:13;;;;;;;18.38;9.40;;;2.50;99.90;;;;;;5013332;28;20029;-53
2021/12/22 11:06:39;;;;;;;23.10;8.77;;;2.50;99.90;;;;;;5013226;28;20217;-50
2021/12/22 11:09:13;;;;;;;19.70;9.30;;;2.50;99.90;;;;;;5013405;28;20041;-51
2021/12/22 11:11:51;;;;;;;18.52;8.65;;;2.60;99.90;;;;;;5013351;28;20018;-54
2021/12/22 11:14:25;;;;;;;18.67;9.95;;;2.60;99.90;;;;;;5012131;28;20026;-52
2021/12/22 11:17:22;;;;;;;21.15;10.55;;;2.60;99.90;;;;;;5013149;28;20021;-55
2021/12/22 11:20:03;;;;;;;22.45;10.05;;;2.60;99.90;;;;;;5010225;28;20065;-56
2021/12/22 11:22:47;;;;;;;18.27;9.30;;;2.60;99.90;;;;;;5013045;28;20026;-52
2021/12/22 11:25:13;;;;;;;123.13;66.22;;;2.60;99.90;;;;;;5010774;28;20393;-54
2021/12/22 11:27:39;;;;;;;45.10;28.20;;;2.70;99.90;;;;;;5011964;28;20105;-54
2021/12/22 11:30:05;;;;;;;37.63;22.92;;;2.70;99.90;;;;;;4997255;28;20034;-54
2021/12/22 11:32:33;;;;;;;40.95;22.92;;;2.70;99.90;;;;;;5007479;28;20034;-54
2021/12/22 11:35:04;;;;;;;190.30;103.97;;;2.80;99.90;;;;;;5012703;28;20041;-53
2021/12/22 11:37:30;;;;;;;141.40;71.53;;;2.80;99.90;;;;;;5012778;28;20095;-53
2021/12/22 11:39:57;;;;;;;46.47;26.23;;;2.80;99.90;;;;;;5004610;28;20022;-54
2021/12/22 11:42:27;;;;;;;66.28;32.90;;;2.90;99.90;;;;;;5013393;28;20632;-52
2021/12/22 11:44:57;;;;;;;459.92;215.43;;;2.90;99.90;;;;;;5012520;28;20568;-54
2021/12/22 11:47:23;;;;;;;81.20;42.97;;;2.90;99.90;;;;;;5013533;28;20036;-53
2021/12/22 11:49:55;;;;;;;108.13;51.58;;;2.80;99.90;;;;;;5012621;28;20120;-55
2021/12/22 11:52:36;;;;;;;69.90;36.58;;;2.90;99.90;;;;;;5012048;28;20037;-54
2021/12/22 11:55:10;;;;;;;149.63;63.17;;;2.90;99.90;;;;;;5013317;28;20053;-54
2021/12/22 11:57:35;;;;;;;184.48;74.53;;;2.90;99.90;;;;;;5012623;28;20030;-53
2021/12/22 12:00:36;;;;;;;157.82;69.25;;;3.00;99.90;;;;;;5012393;28;20033;-52
2021/12/22 12:03:28;;;;;;;175.20;83.60;;;3.00;99.90;;;;;;4951008;29;20046;-53
2021/12/22 12:06:16;;;;;;;229.60;91.35;;;3.00;99.90;;;;;;5001638;28;20046;-53
2021/12/22 12:08:48;;;;;;;170.07;60.33;;;3.00;99.90;;;;;;5005527;28;20030;-51
2021/12/22 12:11:18;;;;;;;59.90;27.48;;;3.00;99.90;;;;;;5011247;28;20072;-49
2021/12/22 12:13:55;;;;;;;108.05;41.40;;;3.00;99.90;;;;;;5011941;28;20022;-56
2021/12/22 12:22:09;;;;;;;182.95;73.03;;;3.00;99.90;;;;;;5012653;28;19960;-54
2021/12/22 12:24:38;;;;;;;372.42;140.68;;;3.10;99.90;;;;;;5012591;28;20030;-49
2021/12/22 12:27:34;;;;;;;434.52;184.23;;;3.00;99.90;;;;;;5012452;28;20193;-53
2021/12/22 12:30:06;;;;;;;178.18;76.00;;;3.00;99.90;;;;;;5011643;28;20040;-53
2021/12/22 12:32:40;;;;;;;117.03;49.75;;;3.00;99.90;;;;;;5012053;28;20025;-51
2021/12/22 12:35:18;;;;;;;66.40;32.45;;;3.00;99.90;;;;;;4994935;28;20014;-54
2021/12/22 12:38:08;;;;;;;140.85;47.55;;;2.90;99.90;;;;;;5012425;28;20393;-51
2021/12/22 12:41:00;;;;;;;164.43;53.10;;;2.90;99.90;;;;;;5010648;28;20030;-52
2021/12/22 12:43:51;;;;;;;53.65;24.42;;;2.90;99.90;;;;;;5011885;28;20461;-56
2021/12/22 12:46:20;;;;;;;72.50;29.50;;;2.80;99.90;;;;;;5011765;28;20022;-54
2021/12/22 12:48:54;;;;;;;304.48;117.28;;;2.80;99.90;;;;;;5011960;28;20049;-56
2021/12/22 12:51:29;;;;;;;238.00;92.32;;;2.80;99.90;;;;;;5011351;28;20045;-53
2021/12/22 12:53:58;;;;;;;89.13;41.50;;;2.80;99.90;;;;;;5011974;28;20381;-52
2021/12/22 12:56:40;;;;;;;58.58;29.05;;;2.80;99.90;;;;;;4998844;28;20036;-51
2021/12/22 12:59:09;;;;;;;120.03;47.58;;;2.70;99.90;;;;;;5009214;28;20125;-54
2021/12/22 13:01:46;;;;;;;67.10;30.48;;;2.70;99.90;;;;;;5011117;28;20025;-52
2021/12/22 13:04:26;;;;;;;74.80;32.70;;;2.70;99.90;;;;;;5011354;28;20060;-51
2021/12/22 13:07:02;;;;;;;76.68;29.83;;;2.70;99.90;;;;;;5010877;28;20080;-56
2021/12/22 13:09:29;;;;;;;42.78;19.90;;;2.60;99.90;;;;;;5011317;28;20029;-53
2021/12/22 13:12:10;;;;;;;39.97;17.85;;;2.70;99.90;;;;;;5010601;28;20105;-53
2021/12/22 13:17:25;;;;;;;60.53;22.25;;;2.60;99.90;;;;;;5002342;28;20057;-54
2021/12/22 13:19:54;;;;;;;154.75;46.15;;;2.60;99.90;;;;;;5009732;28;20536;-53